createdAt,value
2022-10-19T00:02:01.383Z,19.10
2022-10-19T00:04:28.999Z,19.10
2022-10-19T00:06:55.698Z,19.10
2022-10-19T00:09:22.718Z,19.10
2022-10-19T00:11:50.185Z,19.20
2022-10-19T00:14:18.794Z,19.10
2022-10-19T00:16:46.158Z,19.10
2022-10-19T00:19:14.884Z,19.10
2022-10-19T00:21:41.874Z,19.00
2022-10-19T00:24:08.968Z,19.00
2022-10-19T00:26:35.854Z,19.10
2022-10-19T00:29:03.198Z,19.10
2022-10-19T00:31:29.960Z,19.10
2022-10-19T00:33:57.631Z,19.10
2022-10-19T00:36:24.324Z,19.10
2022-10-19T00:38:51.527Z,19.10
2022-10-19T00:41:18.862Z,19.00
2022-10-19T00:43:59.467Z,19.00
2022-10-19T00:46:27.194Z,19.00
2022-10-19T00:48:55.408Z,19.00
2022-10-19T00:51:22.394Z,19.00
2022-10-19T00:53:49.124Z,19.10
2022-10-19T00:56:15.972Z,19.10
2022-10-19T00:58:43.686Z,19.00
2022-10-19T01:01:13.316Z,19.00
2022-10-19T01:03:40.268Z,19.00
2022-10-19T01:06:07.323Z,19.00
2022-10-19T01:08:34.090Z,19.00
2022-10-19T01:11:00.820Z,19.00
2022-10-19T01:13:38.339Z,19.00
2022-10-19T01:16:12.229Z,19.00
2022-10-19T01:18:39.270Z,19.00
2022-10-19T01:21:09.255Z,19.00
2022-10-19T01:23:54.713Z,19.00
2022-10-19T01:26:27.591Z,19.00
2022-10-19T01:29:06.386Z,19.00
2022-10-19T01:31:41.730Z,19.00
2022-10-19T01:34:14.344Z,19.00
2022-10-19T01:36:47.176Z,19.00
2022-10-19T01:39:21.744Z,19.00
2022-10-19T01:41:51.196Z,19.00
2022-10-19T01:44:21.970Z,19.00
2022-10-19T01:46:50.916Z,18.90
2022-10-19T01:49:25.182Z,18.90
2022-10-19T01:51:55.314Z,18.90
2022-10-19T01:54:22.651Z,18.90
2022-10-19T01:56:49.895Z,18.90
2022-10-19T01:59:18.198Z,18.90
2022-10-19T02:01:46.308Z,18.90
2022-10-19T02:04:15.622Z,18.90
2022-10-19T02:06:42.436Z,18.90
2022-10-19T02:09:09.149Z,18.90
2022-10-19T02:11:37.108Z,18.90
2022-10-19T02:14:10.055Z,18.80
2022-10-19T02:16:40.813Z,18.80
2022-10-19T02:19:08.753Z,18.80
2022-10-19T02:21:35.764Z,18.80
2022-10-19T02:24:02.613Z,18.80
2022-10-19T02:26:29.439Z,18.80
2022-10-19T02:28:56.391Z,18.80
2022-10-19T02:31:23.626Z,18.80
2022-10-19T02:33:50.426Z,18.80
2022-10-19T02:36:17.554Z,18.80
2022-10-19T02:38:44.546Z,18.80
2022-10-19T02:41:14.490Z,18.80
2022-10-19T02:43:43.567Z,18.80
2022-10-19T02:46:20.770Z,18.80
2022-10-19T02:48:48.592Z,18.80
2022-10-19T02:51:30.638Z,18.70
2022-10-19T02:53:59.000Z,18.70
2022-10-19T02:56:27.988Z,18.70
2022-10-19T02:58:54.830Z,18.60
2022-10-19T03:01:24.040Z,18.60
2022-10-19T03:03:51.179Z,18.60
2022-10-19T03:06:17.820Z,18.60
2022-10-19T03:08:44.915Z,18.60
2022-10-19T03:11:11.639Z,18.60
2022-10-19T03:13:38.270Z,18.60
2022-10-19T03:16:11.865Z,18.60
2022-10-19T03:18:38.911Z,18.60
2022-10-19T03:21:10.033Z,18.60
2022-10-19T03:23:37.218Z,18.60
2022-10-19T03:26:05.652Z,18.50
2022-10-19T03:28:34.609Z,18.50
2022-10-19T03:31:01.270Z,18.50
2022-10-19T03:33:27.898Z,18.50
2022-10-19T03:36:13.243Z,18.50
2022-10-19T03:38:39.942Z,18.60
2022-10-19T03:41:07.248Z,18.50
2022-10-19T03:43:34.020Z,18.50
2022-10-19T03:46:00.691Z,18.50
2022-10-19T03:48:28.051Z,18.50
2022-10-19T03:50:58.944Z,18.50
2022-10-19T03:53:25.609Z,18.50
2022-10-19T03:55:52.225Z,18.50
2022-10-19T03:58:18.931Z,18.50
2022-10-19T04:00:45.662Z,18.50
2022-10-19T04:03:12.343Z,18.50
2022-10-19T04:05:39.028Z,18.50
2022-10-19T04:08:05.836Z,18.50
2022-10-19T04:10:32.540Z,18.50
2022-10-19T04:12:59.157Z,18.40
2022-10-19T04:15:25.957Z,18.40
2022-10-19T04:17:52.603Z,18.30
2022-10-19T04:20:19.472Z,18.30
2022-10-19T04:22:46.167Z,18.40
2022-10-19T04:25:12.840Z,18.40
2022-10-19T04:27:39.617Z,18.40
2022-10-19T04:30:06.498Z,18.40
2022-10-19T04:32:33.142Z,18.40
2022-10-19T04:34:59.863Z,18.40
2022-10-19T04:37:26.492Z,18.40
2022-10-19T04:39:53.116Z,18.40
2022-10-19T04:42:19.892Z,18.40
2022-10-19T04:44:46.532Z,18.40
2022-10-19T04:47:13.326Z,18.40
2022-10-19T04:49:39.973Z,18.30
2022-10-19T04:52:06.745Z,18.30
2022-10-19T04:54:33.364Z,18.30
2022-10-19T04:57:00.100Z,18.40
2022-10-19T04:59:26.816Z,18.30
2022-10-19T05:01:53.491Z,18.30
2022-10-19T05:04:20.205Z,18.30
2022-10-19T05:06:46.865Z,18.30
2022-10-19T05:09:13.485Z,18.30
2022-10-19T05:11:40.178Z,18.30
2022-10-19T05:14:06.858Z,18.30
2022-10-19T05:16:33.479Z,18.30
2022-10-19T05:19:00.193Z,18.30
2022-10-19T05:21:28.560Z,18.30
2022-10-19T05:23:56.122Z,18.30
2022-10-19T05:26:23.651Z,18.30
2022-10-19T05:28:51.308Z,18.30
2022-10-19T05:31:19.648Z,18.30
2022-10-19T05:33:46.646Z,18.30
2022-10-19T05:36:26.729Z,18.30
2022-10-19T05:38:54.456Z,18.30
2022-10-19T05:41:21.710Z,18.30
2022-10-19T05:43:52.236Z,18.30
2022-10-19T05:46:19.127Z,18.30
2022-10-19T05:48:46.281Z,18.30
2022-10-19T05:51:14.677Z,18.30
2022-10-19T05:53:41.414Z,18.30
2022-10-19T05:56:09.189Z,18.30
2022-10-19T05:58:36.045Z,18.20
2022-10-19T06:01:03.231Z,18.20
2022-10-19T06:03:30.285Z,18.20
2022-10-19T06:05:56.951Z,18.20
2022-10-19T06:08:24.035Z,18.20
2022-10-19T06:10:51.090Z,18.20
2022-10-19T06:13:18.721Z,18.20
2022-10-19T06:15:49.680Z,18.20
2022-10-19T06:18:16.505Z,18.20
2022-10-19T06:20:43.167Z,18.20
2022-10-19T06:23:09.875Z,18.20
2022-10-19T06:25:36.672Z,18.20
2022-10-19T06:28:03.733Z,18.20
2022-10-19T06:30:30.542Z,18.20
2022-10-19T06:32:58.408Z,18.20
2022-10-19T06:35:25.231Z,18.20
2022-10-19T06:37:51.863Z,18.20
2022-10-19T06:40:18.575Z,18.20
2022-10-19T06:42:45.236Z,18.20
2022-10-19T06:45:11.911Z,18.20
2022-10-19T06:47:38.909Z,18.20
2022-10-19T06:50:06.737Z,18.20
2022-10-19T06:52:36.803Z,18.20
2022-10-19T06:55:04.078Z,18.20
2022-10-19T06:57:30.836Z,18.20
2022-10-19T06:59:57.514Z,18.20
2022-10-19T07:02:24.191Z,18.20
2022-10-19T07:04:50.840Z,18.20
2022-10-19T07:07:17.535Z,18.20
2022-10-19T07:09:44.169Z,18.20
2022-10-19T07:12:10.904Z,18.20
2022-10-19T07:14:39.562Z,18.20
2022-10-19T07:17:06.919Z,18.20
2022-10-19T07:19:34.072Z,18.20
2022-10-19T07:22:00.718Z,18.10
2022-10-19T07:24:27.626Z,18.10
2022-10-19T07:26:54.306Z,18.10
2022-10-19T07:29:21.078Z,18.10
2022-10-19T07:31:47.775Z,18.20
2022-10-19T07:34:14.565Z,18.20
2022-10-19T07:36:45.327Z,18.10
2022-10-19T07:39:12.542Z,18.20
2022-10-19T07:41:39.546Z,18.10
2022-10-19T07:44:06.352Z,18.10
2022-10-19T07:46:37.244Z,18.10
2022-10-19T07:49:06.949Z,18.10
2022-10-19T07:51:33.710Z,18.10
2022-10-19T07:54:00.406Z,18.10
2022-10-19T07:56:28.239Z,18.10
2022-10-19T07:58:56.481Z,18.10
2022-10-19T08:01:24.621Z,18.10
2022-10-19T08:06:38.643Z,18.10
2022-10-19T08:09:05.604Z,18.10
2022-10-19T08:11:33.664Z,18.10
2022-10-19T08:14:02.667Z,18.10
2022-10-19T08:16:40.457Z,18.10
2022-10-19T08:19:08.370Z,18.10
2022-10-19T08:21:35.636Z,18.10
2022-10-19T08:24:02.366Z,18.10
2022-10-19T08:26:30.170Z,18.10
2022-10-19T08:29:00.593Z,18.10
2022-10-19T08:31:27.436Z,18.10
2022-10-19T08:33:54.123Z,18.10
2022-10-19T08:36:21.335Z,18.10
2022-10-19T08:38:48.899Z,18.10
2022-10-19T08:41:34.262Z,18.10
2022-10-19T08:44:19.670Z,18.10
2022-10-19T08:46:49.371Z,18.00
2022-10-19T08:49:19.116Z,18.00
2022-10-19T08:51:49.460Z,18.00
2022-10-19T08:54:18.002Z,18.00
2022-10-19T08:56:51.399Z,18.00
2022-10-19T08:59:26.540Z,18.10
2022-10-19T09:01:56.264Z,18.00
2022-10-19T09:04:25.759Z,18.10
2022-10-19T09:06:52.450Z,18.10
2022-10-19T09:09:20.671Z,18.10
2022-10-19T09:11:49.079Z,18.10
2022-10-19T09:14:22.100Z,18.10
2022-10-19T09:16:48.863Z,18.10
2022-10-19T09:19:21.924Z,18.10
2022-10-19T09:21:51.472Z,18.10
2022-10-19T09:24:24.022Z,18.10
2022-10-19T09:26:52.927Z,18.20
2022-10-19T09:29:55.313Z,18.20
2022-10-19T09:32:42.275Z,18.20
2022-10-19T09:35:22.852Z,18.40
2022-10-19T09:37:51.111Z,18.40
2022-10-19T09:40:19.340Z,18.40
2022-10-19T09:42:46.467Z,18.50
2022-10-19T09:45:36.636Z,18.50
2022-10-19T09:48:12.773Z,18.60
2022-10-19T09:50:42.639Z,18.60
2022-10-19T09:53:15.596Z,18.60
2022-10-19T09:55:43.710Z,18.70
2022-10-19T09:58:13.355Z,18.70
2022-10-19T10:00:50.712Z,18.80
2022-10-19T10:03:23.193Z,18.80
2022-10-19T10:05:50.109Z,18.80
2022-10-19T10:08:18.670Z,18.80
2022-10-19T10:11:08.531Z,18.80
2022-10-19T10:13:36.712Z,18.80
2022-10-19T10:16:04.530Z,18.80
2022-10-19T10:18:31.275Z,18.80
2022-10-19T10:23:36.135Z,18.80
2022-10-19T10:26:03.542Z,18.80
2022-10-19T10:28:30.327Z,18.80
2022-10-19T10:31:01.546Z,18.80
2022-10-19T10:33:45.603Z,18.80
2022-10-19T10:36:12.865Z,18.80
2022-10-19T10:38:47.036Z,18.80
2022-10-19T10:41:18.089Z,18.80
2022-10-19T10:46:29.022Z,18.80
2022-10-19T10:48:57.363Z,18.80
2022-10-19T10:51:26.932Z,18.80
2022-10-19T10:54:06.191Z,18.90
2022-10-19T10:56:34.036Z,18.90
2022-10-19T10:59:04.842Z,18.90
2022-10-19T11:01:45.216Z,18.90
2022-10-19T11:04:13.891Z,18.90
2022-10-19T11:06:53.572Z,18.90
2022-10-19T11:09:28.771Z,18.90
2022-10-19T11:11:57.598Z,18.90
2022-10-19T11:14:27.276Z,18.90
2022-10-19T11:16:55.153Z,18.90
2022-10-19T11:19:27.268Z,18.90
2022-10-19T11:21:57.528Z,18.80
2022-10-19T11:24:48.864Z,18.80
2022-10-19T11:27:33.685Z,18.80
2022-10-19T11:30:00.569Z,18.80
2022-10-19T11:32:39.587Z,18.70
2022-10-19T11:35:25.098Z,18.70
2022-10-19T11:38:14.208Z,18.70
2022-10-19T11:41:13.122Z,18.60
2022-10-19T11:43:49.531Z,18.60
2022-10-19T11:46:27.300Z,18.60
2022-10-19T11:48:54.899Z,18.60
2022-10-19T11:51:40.004Z,18.60
2022-10-19T11:54:14.439Z,18.60
2022-10-19T11:57:02.888Z,18.60
2022-10-19T11:59:43.104Z,18.60
2022-10-19T12:02:42.260Z,18.60
2022-10-19T12:05:11.515Z,18.60
2022-10-19T12:08:10.578Z,18.60
2022-10-19T12:10:47.028Z,18.60
2022-10-19T12:13:16.542Z,18.60
2022-10-19T12:15:48.251Z,18.60
2022-10-19T12:18:22.022Z,18.60
2022-10-19T12:20:52.556Z,18.60
2022-10-19T12:23:36.337Z,18.60
2022-10-19T12:26:05.674Z,18.60
2022-10-19T12:28:34.054Z,18.70
2022-10-19T12:31:01.405Z,18.70
2022-10-19T12:34:00.581Z,18.60
2022-10-19T12:36:33.106Z,18.60
2022-10-19T12:39:04.502Z,18.70
2022-10-19T12:41:37.456Z,18.70
2022-10-19T12:44:06.916Z,18.70
2022-10-19T12:46:33.552Z,18.70
2022-10-19T12:49:19.087Z,18.60
2022-10-19T12:51:46.416Z,18.60
2022-10-19T12:54:13.107Z,18.60
2022-10-19T12:56:50.195Z,18.70
2022-10-19T12:59:24.479Z,18.70
2022-10-19T13:01:51.708Z,18.70
2022-10-19T13:04:20.980Z,18.60
2022-10-19T13:06:52.214Z,18.70
2022-10-19T13:09:23.413Z,18.60
2022-10-19T13:12:08.768Z,18.60
2022-10-19T13:14:55.259Z,18.60
2022-10-19T13:17:37.128Z,18.60
2022-10-19T13:20:16.139Z,18.60
2022-10-19T13:22:50.161Z,18.60
2022-10-19T13:25:19.851Z,18.60
2022-10-19T13:27:56.645Z,18.60
2022-10-19T13:30:35.501Z,18.60
2022-10-19T13:33:20.635Z,18.70
2022-10-19T13:35:47.494Z,18.60
2022-10-19T13:38:16.889Z,18.60
2022-10-19T13:40:49.785Z,18.60
2022-10-19T13:43:20.950Z,18.60
2022-10-19T13:46:05.691Z,18.60
2022-10-19T13:48:44.464Z,18.60
2022-10-19T13:51:30.021Z,18.60
2022-10-19T13:53:59.626Z,18.60
2022-10-19T13:56:29.357Z,18.60
2022-10-19T13:58:59.339Z,18.60
2022-10-19T14:01:41.752Z,18.70
2022-10-19T14:04:20.446Z,18.80
2022-10-19T14:06:58.293Z,18.70
2022-10-19T14:09:32.973Z,18.60
2022-10-19T14:12:18.567Z,18.50
2022-10-19T14:14:45.386Z,18.50
2022-10-19T14:17:19.682Z,18.50
2022-10-19T14:19:48.109Z,18.50
2022-10-19T14:22:19.706Z,18.50
2022-10-19T14:24:46.405Z,18.50
2022-10-19T14:27:17.380Z,18.60
2022-10-19T14:29:50.012Z,18.60
2022-10-19T14:32:17.696Z,18.70
2022-10-19T14:34:45.409Z,18.70
2022-10-19T14:37:17.507Z,18.70
2022-10-19T14:39:56.895Z,18.70
2022-10-19T14:42:23.756Z,18.60
2022-10-19T14:44:50.379Z,18.60
2022-10-19T14:47:24.293Z,18.60
2022-10-19T14:49:51.180Z,18.70
2022-10-19T14:52:21.744Z,18.90
2022-10-19T14:54:49.384Z,19.00
2022-10-19T14:57:24.740Z,19.10
2022-10-19T14:59:57.275Z,19.10
2022-10-19T15:02:25.512Z,19.00
2022-10-19T15:04:53.152Z,18.80
2022-10-19T15:07:24.562Z,18.60
2022-10-19T15:10:01.428Z,18.50
2022-10-19T15:12:36.344Z,18.50
2022-10-19T15:15:26.486Z,18.50
2022-10-19T15:17:59.288Z,18.40
2022-10-19T15:20:30.400Z,18.40
2022-10-19T15:22:58.428Z,18.40
2022-10-19T15:25:25.364Z,18.40
2022-10-19T15:27:53.659Z,18.40
2022-10-19T15:30:25.262Z,18.40
2022-10-19T15:32:56.214Z,18.40
2022-10-19T15:35:26.012Z,18.40
2022-10-19T15:37:59.136Z,18.40
2022-10-19T15:40:29.075Z,18.40
2022-10-19T15:42:55.996Z,18.40
2022-10-19T15:45:31.247Z,18.40
2022-10-19T15:48:10.073Z,18.40
2022-10-19T15:50:38.719Z,18.50
2022-10-19T15:53:05.344Z,18.50
2022-10-19T15:55:33.315Z,18.50
2022-10-19T15:58:02.419Z,18.50
2022-10-19T16:00:29.934Z,18.50
2022-10-19T16:02:56.626Z,18.50
2022-10-19T16:05:23.416Z,18.50
2022-10-19T16:07:50.147Z,18.50
2022-10-19T16:10:18.239Z,18.50
2022-10-19T16:12:44.981Z,18.50
2022-10-19T16:15:12.196Z,18.50
2022-10-19T16:17:39.145Z,18.50
2022-10-19T16:20:06.345Z,18.50
2022-10-19T16:22:33.437Z,18.50
2022-10-19T16:25:00.138Z,18.50
2022-10-19T16:27:27.007Z,18.50
2022-10-19T16:29:54.533Z,18.50
2022-10-19T16:32:21.244Z,18.50
2022-10-19T16:34:47.939Z,18.50
2022-10-19T16:37:14.699Z,18.50
2022-10-19T16:39:41.392Z,18.50
2022-10-19T16:42:08.090Z,18.50
2022-10-19T16:44:34.822Z,18.60
2022-10-19T16:47:01.464Z,18.60
2022-10-19T16:49:28.191Z,18.60
2022-10-19T16:51:57.353Z,18.60
2022-10-19T16:54:26.451Z,18.60
2022-10-19T16:56:53.076Z,18.60
2022-10-19T16:59:19.774Z,18.60
2022-10-19T17:01:47.064Z,18.60
2022-10-19T17:04:14.600Z,18.60
2022-10-19T17:06:41.420Z,18.50
2022-10-19T17:11:54.936Z,18.50
2022-10-19T17:14:21.612Z,18.60
2022-10-19T17:16:48.327Z,18.60
2022-10-19T17:19:14.943Z,18.60
2022-10-19T17:21:42.336Z,18.60
2022-10-19T17:24:16.806Z,18.60
2022-10-19T17:26:45.398Z,18.60
2022-10-19T17:29:12.706Z,18.60
2022-10-19T17:31:39.883Z,18.60
2022-10-19T17:34:07.231Z,18.60
2022-10-19T17:36:42.081Z,18.60
2022-10-19T17:39:12.611Z,18.50
2022-10-19T17:41:39.343Z,18.60
2022-10-19T17:44:05.991Z,18.60
2022-10-19T17:46:34.223Z,18.60
2022-10-19T17:49:01.217Z,18.60
2022-10-19T17:51:29.373Z,18.60
2022-10-19T17:53:56.912Z,18.60
2022-10-19T17:56:23.949Z,18.60
2022-10-19T17:58:50.663Z,18.60
2022-10-19T18:01:18.094Z,18.60
2022-10-19T18:03:44.904Z,18.60
2022-10-19T18:06:13.216Z,18.60
2022-10-19T18:08:41.909Z,18.60
2022-10-19T18:11:10.433Z,18.60
2022-10-19T18:16:13.803Z,18.60
2022-10-19T18:18:41.857Z,18.60
2022-10-19T18:21:11.343Z,18.60
2022-10-19T18:23:38.296Z,18.60
2022-10-19T18:26:06.396Z,18.60
2022-10-19T18:28:33.565Z,18.60
2022-10-19T18:31:07.548Z,18.60
2022-10-19T18:33:34.680Z,18.60
2022-10-19T18:36:01.490Z,18.60
2022-10-19T18:38:28.340Z,18.60
2022-10-19T18:40:56.104Z,18.60
2022-10-19T18:43:23.359Z,18.60
2022-10-19T18:45:54.243Z,18.60
2022-10-19T18:48:21.398Z,18.60
2022-10-19T18:50:48.164Z,18.60
2022-10-19T18:53:14.994Z,18.60
2022-10-19T18:55:42.116Z,18.60
2022-10-19T18:58:09.453Z,18.60
2022-10-19T19:00:36.627Z,18.60
2022-10-19T19:03:03.406Z,18.60
2022-10-19T19:05:31.734Z,18.60
2022-10-19T19:07:59.100Z,18.60
2022-10-19T19:10:25.959Z,18.60
2022-10-19T19:12:52.651Z,18.60
2022-10-19T19:15:19.781Z,18.60
2022-10-19T19:17:46.504Z,18.60
2022-10-19T19:20:13.292Z,18.60
2022-10-19T19:22:39.922Z,18.60
2022-10-19T19:25:06.839Z,18.60
2022-10-19T19:27:33.633Z,18.60
2022-10-19T19:30:00.619Z,18.60
2022-10-19T19:32:27.563Z,18.60
2022-10-19T19:34:54.966Z,18.50
2022-10-19T19:37:22.146Z,18.50
2022-10-19T19:39:48.858Z,18.50
2022-10-19T19:42:16.407Z,18.50
2022-10-19T19:44:43.292Z,18.50
2022-10-19T19:47:10.063Z,18.50
2022-10-19T19:49:36.793Z,18.50
2022-10-19T19:52:03.514Z,18.50
2022-10-19T19:54:30.228Z,18.50
2022-10-19T19:56:56.912Z,18.50
2022-10-19T19:59:23.789Z,18.50
2022-10-19T20:01:50.591Z,18.50
2022-10-19T20:04:17.323Z,18.50
2022-10-19T20:06:44.546Z,18.50
2022-10-19T20:09:11.427Z,18.60
2022-10-19T20:11:42.052Z,18.50
2022-10-19T20:14:09.888Z,18.50
2022-10-19T20:16:36.951Z,18.50
2022-10-19T20:19:08.445Z,18.50
2022-10-19T20:21:35.202Z,18.50
2022-10-19T20:24:01.959Z,18.50
2022-10-19T20:26:28.868Z,18.50
2022-10-19T20:28:55.983Z,18.50
2022-10-19T20:31:23.187Z,18.50
2022-10-19T20:33:50.037Z,18.50
2022-10-19T20:36:24.119Z,18.50
2022-10-19T20:38:52.003Z,18.50
2022-10-19T20:41:19.301Z,18.50
2022-10-19T20:43:46.042Z,18.50
2022-10-19T20:46:13.839Z,18.50
2022-10-19T20:48:40.791Z,18.60
2022-10-19T20:51:12.057Z,18.50
2022-10-19T20:53:39.094Z,18.50
2022-10-19T20:56:06.518Z,18.50
2022-10-19T20:58:33.876Z,18.50
2022-10-19T21:01:07.808Z,18.50
2022-10-19T21:03:34.651Z,18.50
2022-10-19T21:06:05.570Z,18.60
2022-10-19T21:08:33.481Z,18.60
2022-10-19T21:11:00.235Z,18.50
2022-10-19T21:13:27.022Z,18.50
2022-10-19T21:15:53.716Z,18.50
2022-10-19T21:18:20.422Z,18.40
2022-10-19T21:20:47.245Z,18.50
2022-10-19T21:23:13.932Z,18.50
2022-10-19T21:25:40.679Z,18.50
2022-10-19T21:28:07.314Z,18.50
2022-10-19T21:30:35.430Z,18.60
2022-10-19T21:33:02.160Z,18.60
2022-10-19T21:35:28.844Z,18.50
2022-10-19T21:37:55.501Z,18.50
2022-10-19T21:40:22.180Z,18.50
2022-10-19T21:42:48.812Z,18.50
2022-10-19T21:45:29.857Z,18.50
2022-10-19T21:47:57.631Z,18.50
2022-10-19T21:50:24.267Z,18.40
2022-10-19T21:52:50.953Z,18.40
2022-10-19T21:55:17.563Z,18.40
2022-10-19T21:57:45.432Z,18.40
2022-10-19T22:00:12.372Z,18.50
2022-10-19T22:02:41.628Z,18.40
2022-10-19T22:05:08.463Z,18.40
2022-10-19T22:07:35.354Z,18.40
2022-10-19T22:10:02.314Z,18.40
2022-10-19T22:12:29.349Z,18.40
2022-10-19T22:14:56.047Z,18.40
2022-10-19T22:17:22.847Z,18.40
2022-10-19T22:19:50.379Z,18.40
2022-10-19T22:22:17.243Z,18.40
2022-10-19T22:24:43.864Z,18.40
2022-10-19T22:27:10.523Z,18.40
2022-10-19T22:29:37.349Z,18.40
2022-10-19T22:32:04.059Z,18.40
2022-10-19T22:34:32.134Z,18.40
2022-10-19T22:36:58.932Z,18.40
2022-10-19T22:39:27.794Z,18.30
2022-10-19T22:42:03.947Z,18.30
2022-10-19T22:44:31.129Z,18.30
2022-10-19T22:46:58.243Z,18.30
2022-10-19T22:49:24.978Z,18.30
2022-10-19T22:51:51.616Z,18.30
2022-10-19T22:54:21.141Z,18.30
2022-10-19T22:56:47.795Z,18.30
2022-10-19T22:59:14.732Z,18.30
2022-10-19T23:01:41.527Z,18.30
2022-10-19T23:04:08.319Z,18.30
2022-10-19T23:06:34.991Z,18.30
2022-10-19T23:09:01.749Z,18.30
2022-10-19T23:11:28.468Z,18.30
2022-10-19T23:13:55.262Z,18.30
2022-10-19T23:16:22.000Z,18.30
2022-10-19T23:18:48.756Z,18.30
2022-10-19T23:21:15.667Z,18.30
2022-10-19T23:23:42.495Z,18.30
2022-10-19T23:26:13.124Z,18.20
2022-10-19T23:28:40.465Z,18.30
2022-10-19T23:31:11.215Z,18.20
2022-10-19T23:33:38.272Z,18.20
2022-10-19T23:36:04.926Z,18.20
2022-10-19T23:38:31.597Z,18.20
2022-10-19T23:40:58.278Z,18.20
2022-10-19T23:43:25.148Z,18.20
2022-10-19T23:45:51.844Z,18.20
2022-10-19T23:48:18.686Z,18.20
2022-10-19T23:50:45.340Z,18.20
2022-10-19T23:53:11.979Z,18.20
2022-10-19T23:55:38.689Z,18.20
2022-10-19T23:58:05.438Z,18.20
